Whitewater Creek, Colorado (Grand Mesa) Weather observations

Data are for observation ending at time listed.
 Day   Time    Ave.   Ave.  Ave.  Vector   Max.    Total    Solar   Ave.  
  of    of     Air    Rel.  Wind   Wind    Wind   Precip.   Rad.    Soil  
Year   Day     Temp.  Hum.  Speed  Dir.    Gust                     Temp. 
2015   (MST)    F      %     mph   deg.    mph      in.     W/m2     F   
------------------------------------------------------------------------------
  59    6:20    8.8    90    2.2   174      2.2    99999.00   99999    99999.0
  59    6:30   10.0    91    2.2   184      2.2    99999.00   99999    99999.0
  59    6:40   10.7    91    2.2   182      2.2    99999.00   99999    99999.0
  59    6:50   11.3    91    2.8   182      6.1    99999.00   99999    99999.0
  59    7:00   12.4    91    3.7   176      8.6    99999.00   99999    99999.0
  59    7:10   12.5    91    3.4   174      6.1    99999.00   99999    99999.0
  59    7:20   12.5    91    5.9   176     11.2    99999.00   99999    99999.0
  59    7:30   12.5    91    4.6   177     11.2    99999.00   99999    99999.0
  59    7:40   12.6    91    7.8   171     11.2    99999.00   99999    99999.0
  59    7:50   12.8    91    9.1   175     12.5    99999.00   99999    99999.0
  59    8:00   12.8    91   10.4   175     12.5    99999.00   99999    99999.0
  59    8:10   12.7    91   11.7   179     15.0    99999.00   99999    99999.0
  59    8:20   12.8    91   11.3   180     15.0    99999.00   99999    99999.0
  59    8:30   13.1    91   10.3   179     15.0    99999.00   99999    99999.0
  59    8:40   13.4    91    8.8   176     12.5    99999.00   99999    99999.0
  59    8:50   13.7    91    4.8   178      9.9    99999.00   99999    99999.0
  59    9:00   14.3    90    3.2   176      9.9    99999.00   99999    99999.0
  59    9:10   14.6    90    2.5   187      4.8    99999.00   99999    99999.0
  59    9:20   15.0    88    3.2   188      6.1    99999.00   99999    99999.0
  59    9:30   15.9    86    3.8   175      9.9    99999.00   99999    99999.0
  59    9:40   16.6    83    4.3   174      8.6    99999.00   99999    99999.0
  59    9:50   17.2    80    3.9   168      9.9    99999.00   99999    99999.0
  59   10:00   17.7    78    3.8   169      9.9    99999.00   99999    99999.0
  59   10:10   18.3    77    4.3   172      8.6    99999.00   99999    99999.0
  59   10:20   19.0    76    4.9   185      9.9    99999.00   99999    99999.0
  59   10:30   18.8    77    5.3   188     11.2    99999.00   99999    99999.0
  59   10:40   18.9    77    5.8   180     11.2    99999.00   99999    99999.0
  59   10:50   19.6    77    5.3   177     11.2    99999.00   99999    99999.0
  59   11:00   19.5    78    6.7   180     15.0    99999.00   99999    99999.0
  59   11:10   19.8    77    7.4   179     15.0    99999.00   99999    99999.0
  59   11:20   20.1    76    8.2   177     15.0    99999.00   99999    99999.0
  59   11:30   20.4    75    7.4   173     13.8    99999.00   99999    99999.0
  59   11:40   21.1    71    9.8   165     16.3    99999.00   99999    99999.0
  59   11:50   20.6    73    9.6   156     16.3    99999.00   99999    99999.0
  59   12:00   20.5    72   10.9   151     18.9    99999.00   99999    99999.0
  59   12:10   20.8    72    9.3   160     17.6    99999.00   99999    99999.0
  59   12:20   19.9    76    8.3   155     13.8    99999.00   99999    99999.0
  59   12:30   20.9    74    8.3   167     16.3    99999.00   99999    99999.0
  59   12:40   20.6    74    8.2   163     13.8    99999.00   99999    99999.0
  59   12:50   20.8    74    8.5   160     13.8    99999.00   99999    99999.0
  59   13:00   22.1    69   12.0   160     25.3    99999.00   99999    99999.0
  59   13:10   23.0    68   14.5   165     22.7    99999.00   99999    99999.0
  59   13:20   22.7    71   13.6   173     24.0    99999.00   99999    99999.0
  59   13:30   21.5    76   15.8   177     24.0    99999.00   99999    99999.0
  59   13:40   21.1    79   16.7   185     22.7    99999.00   99999    99999.0
  59   13:50   21.1    82   18.6   192     25.3    99999.00   99999    99999.0
  59   14:00   20.1    86   19.7   199     27.8    99999.00   99999    99999.0
  59   14:10   20.5    86   19.3   193     27.8    99999.00   99999    99999.0
  59   14:20   19.5    89   21.6   201     29.1    99999.00   99999    99999.0
  59   14:30   19.6    90   21.1   202     27.8    99999.00   99999    99999.0
  59   14:40   19.7    89   22.2   203     30.4    99999.00   99999    99999.0
  59   14:50   19.4    91   21.0   205     26.6    99999.00   99999    99999.0
  59   15:00   19.7    92   19.7   200     29.1    99999.00   99999    99999.0
  59   15:10   19.6    93   20.1   201     26.6    99999.00   99999    99999.0
  59   15:20   20.2    93   18.7   199     25.3    99999.00   99999    99999.0
  59   15:30   20.3    93   20.4   200     30.4    99999.00   99999    99999.0
  59   15:40   20.3    93   23.1   205     31.7    99999.00   99999    99999.0
  59   15:50   20.3    93   22.2   200     31.7    99999.00   99999    99999.0
  59   16:00   20.1    92   21.8   203     30.4    99999.00   99999    99999.0
  59   16:10   20.0    92   19.9   201     27.8    99999.00   99999    99999.0
  59   16:20   20.0    91   21.3   199     29.1    99999.00   99999    99999.0
  59   16:30   20.0    91   22.5   202     30.4    99999.00   99999    99999.0
  59   16:40   19.7    91   23.8   201     31.7    99999.00   99999    99999.0
  59   16:50   19.8    93   21.7   207     27.8    99999.00   99999    99999.0
  59   17:00   19.7    93   21.4   207     30.4    99999.00   99999    99999.0
  59   17:10   19.8    93   22.0   206     27.8    99999.00   99999    99999.0
  59   17:20   19.7    94   20.5   215     26.6    99999.00   99999    99999.0
  59   17:30   19.8    94   22.7   204     29.1    99999.00   99999    99999.0
  59   17:40   19.8    94   20.5   201     26.6    99999.00   99999    99999.0
  59   17:50   20.0    94   20.1   208     27.8    99999.00   99999    99999.0
  59   18:00   20.1    94   19.1   208     26.6    99999.00   99999    99999.0
  59   18:10   20.0    94   19.9   210     26.6    99999.00   99999    99999.0
  59   18:20   20.0    94   20.7   206     26.6    99999.00   99999    99999.0
  59   18:30   19.8    94   20.9   206     26.6    99999.00   99999    99999.0
  59   18:40   19.8    94   19.0   203     26.6    99999.00   99999    99999.0
  59   18:50   19.7    94   17.4   205     25.3    99999.00   99999    99999.0
  59   19:00   19.6    94   17.6   196     25.3    99999.00   99999    99999.0
  59   19:10   19.6    94   15.5   195     21.4    99999.00   99999    99999.0
  59   19:20   19.6    94   16.9   196     22.7    99999.00   99999    99999.0
  59   19:30   19.5    94   18.0   201     24.0    99999.00   99999    99999.0
  59   19:40   19.5    94   17.3   200     22.7    99999.00   99999    99999.0
  59   19:50   19.6    94   17.0   198     21.4    99999.00   99999    99999.0
  59   20:00   19.8    94   17.8   200     24.0    99999.00   99999    99999.0
  59   20:10   19.9    94   17.0   205     21.4    99999.00   99999    99999.0
  59   20:20   19.9    94   16.8   195     22.7    99999.00   99999    99999.0
  59   20:30   19.7    94   19.2   198     24.0    99999.00   99999    99999.0
  59   20:40   19.6    94   20.2   199     27.8    99999.00   99999    99999.0
  59   20:50   19.8    94   17.1   209     21.4    99999.00   99999    99999.0
  59   21:00   19.9    94   18.9   207     24.0    99999.00   99999    99999.0
  59   21:10   19.8    94   18.0   212     26.6    99999.00   99999    99999.0
  59   21:20   19.9    94   21.0   219     29.1    99999.00   99999    99999.0
  59   21:30   19.8    94   19.8   204     26.6    99999.00   99999    99999.0
  59   21:40   19.5    94   17.8   202     24.0    99999.00   99999    99999.0
  59   21:50   19.8    94   20.2   194     27.8    99999.00   99999    99999.0
  59   22:00   19.8    94   19.3   200     24.0    99999.00   99999    99999.0
  59   22:10   19.8    94   19.4   205     24.0    99999.00   99999    99999.0
  59   22:20   19.6    94   19.9   206     27.8    99999.00   99999    99999.0
  59   22:30   19.1    94   22.4   209     30.4    99999.00   99999    99999.0
  59   22:40   19.1    94   19.3   206     30.4    99999.00   99999    99999.0
  59   22:50   19.1    94   18.1   205     25.3    99999.00   99999    99999.0
  59   23:00   18.9    94   17.7   201     24.0    99999.00   99999    99999.0
  59   23:10   18.9    94   20.0   204     26.6    99999.00   99999    99999.0
  59   23:20   18.8    94   20.1   204     27.8    99999.00   99999    99999.0
  59   23:30   18.7    94   18.5   207     25.3    99999.00   99999    99999.0
  59   23:40   18.6    94   19.4   203     26.6    99999.00   99999    99999.0
  59   23:50   18.5    94   17.9   203     22.7    99999.00   99999    99999.0
  60    0:00   18.3    94   20.2   205     26.6    99999.00   99999    99999.0
  60    0:10   18.2    94   18.7   198     26.6    99999.00   99999    99999.0
  60    0:20   18.2    94   18.0   194     22.7    99999.00   99999    99999.0
  60    0:30   18.2    94   18.3   199     25.3    99999.00   99999    99999.0
  60    0:40   18.1    94   15.8   193     21.4    99999.00   99999    99999.0
  60    0:50   18.1    94   13.7   195     18.9    99999.00   99999    99999.0
  60    1:00   17.9    94   14.2   196     17.6    99999.00   99999    99999.0
  60    1:10   18.0    94   15.0   199     21.4    99999.00   99999    99999.0
  60    1:20   17.9    94   17.6   207     24.0    99999.00   99999    99999.0
  60    1:30   17.9    94   15.9   208     24.0    99999.00   99999    99999.0
  60    1:40   17.9    94   16.0   205     22.7    99999.00   99999    99999.0
  60    1:50   17.9    94   15.6   209     20.2    99999.00   99999    99999.0
  60    2:00   18.0    94   14.5   200     18.9    99999.00   99999    99999.0
  60    2:10   18.0    94   13.1   199     17.6    99999.00   99999    99999.0
  60    2:20   18.0    94   14.9   200     20.2    99999.00   99999    99999.0
  60    2:30   18.1    94   17.8   201     25.3    99999.00   99999    99999.0
  60    2:40   18.2    94   18.0   211     25.3    99999.00   99999    99999.0
  60    2:50   18.2    94   16.9   212     20.2    99999.00   99999    99999.0
  60    3:00   18.3    94   15.0   210     18.9    99999.00   99999    99999.0
  60    3:10   18.0    94   14.2   208     18.9    99999.00   99999    99999.0
  60    3:20   17.7    94   13.9   206     16.3    99999.00   99999    99999.0
  60    3:30   18.0    94   13.8   205     18.9    99999.00   99999    99999.0
  60    3:40   18.2    94   15.6   204     18.9    99999.00   99999    99999.0
  60    3:50   18.3    94   14.9   202     18.9    99999.00   99999    99999.0
  60    4:00   18.3    94   14.3   205     17.6    99999.00   99999    99999.0
  60    4:10   18.3    94   14.2   207     18.9    99999.00   99999    99999.0
  60    4:20   18.2    94   13.5   207     16.3    99999.00   99999    99999.0
  60    4:30   18.2    94   14.3   213     20.2    99999.00   99999    99999.0
  60    4:40   18.1    94   13.9   212     18.9    99999.00   99999    99999.0
  60    4:50   17.8    94   12.9   214     17.6    99999.00   99999    99999.0
  60    5:00   17.8    94   12.2   209     15.0    99999.00   99999    99999.0
  60    5:10   17.9    94   12.7   203     16.3    99999.00   99999    99999.0
  60    5:20   17.6    94   11.1   197     15.0    99999.00   99999    99999.0
  60    5:30   17.4    93   11.0   186     15.0    99999.00   99999    99999.0
  60    5:40   17.2    93   10.5   196     13.8    99999.00   99999    99999.0
  60    5:50   17.1    93   10.1   186     12.5    99999.00   99999    99999.0
  60    6:00   16.8    93    9.7   190     13.8    99999.00   99999    99999.0
  60    6:10   16.9    93   11.0   196     15.0    99999.00   99999    99999.0

Return to Whitewater Creek, Colorado graphs page.


Western Regional Climate Center,wrcc@dri.edu